Time;durP1;ratioP1;P1;durP2;ratioP2;P2;SDS_P1;SDS_P2;PMS_P1;PMS_P2;Temp;Humidity;BMP_temperature;BMP_pressure;BME280_temperature;BME280_humidity;BME280_pressure;Samples;Min_cycle;Max_cycle;Signal;HPM_P1;HPM_P2
2022/01/19 00:01:05;;;;;;;9.70;6.97;;;;;;;;;;5018600;28;20444;-95
2022/01/19 00:03:32;;;;;;;6.80;5.53;;;;;;;;;;5019516;28;21030;-95
2022/01/19 00:05:59;;;;;;;9.50;6.00;;;;;;;;;;5019261;28;20440;-93
2022/01/19 00:08:29;;;;;;;8.43;5.60;;;;;;;;;;5019661;28;20811;-95
2022/01/19 00:10:56;;;;;;;9.10;6.87;;;;;;;;;;5019559;28;20879;-93
2022/01/19 00:13:23;;;;;;;7.93;6.60;;;;;;;;;;5018845;28;20484;-93
2022/01/19 00:15:51;;;;;;;9.50;5.80;;;;;;;;;;5018365;28;20463;-94
2022/01/19 00:18:19;;;;;;;7.30;5.53;;;;;;;;;;5019207;28;20453;-93
2022/01/19 00:20:46;;;;;;;7.50;6.00;;;;;;;;;;5019487;28;20456;-93
2022/01/19 00:23:15;;;;;;;9.50;6.20;;;;;;;;;;5019345;28;20457;-93
2022/01/19 00:25:46;;;;;;;9.80;6.40;;;0.30;99.90;;;;;;5018914;28;20456;-93
2022/01/19 00:28:14;;;;;;;12.27;6.50;;;;;;;;;;5018820;28;20525;-94
2022/01/19 00:30:41;;;;;;;10.10;6.40;;;;;;;;;;5018415;28;20456;-94
2022/01/19 00:33:09;;;;;;;12.43;6.90;;;0.20;99.90;;;;;;5019128;28;20484;-94
2022/01/19 00:35:36;;;;;;;11.50;6.43;;;0.20;99.90;;;;;;5013776;28;20471;-93
2022/01/19 00:38:04;;;;;;;13.33;7.00;;;;;;;;;;5018158;28;20457;-93
2022/01/19 00:40:31;;;;;;;12.30;7.70;;;;;;;;;;5018625;28;20467;-94
2022/01/19 00:43:00;;;;;;;10.97;7.00;;;;;;;;;;5018081;28;20485;-93
2022/01/19 00:45:27;;;;;;;11.97;7.53;;;;;;;;;;5017902;28;20955;-93
2022/01/19 00:47:55;;;;;;;12.70;6.93;;;;;;;;;;5018496;28;20433;-93
2022/01/19 00:50:24;;;;;;;11.97;6.27;;;;;;;;;;5018905;28;20524;-94
2022/01/19 00:52:52;;;;;;;8.20;6.17;;;;;;;;;;5018972;28;20457;-94
2022/01/19 00:55:21;;;;;;;8.90;6.60;;;;;;;;;;5020002;28;20457;-95
2022/01/19 00:57:48;;;;;;;12.60;7.27;;;;;;;;;;5019693;28;20451;-93
2022/01/19 01:00:18;;;;;;;9.43;6.47;;;;;;;;;;5018889;28;20459;-95
2022/01/19 01:02:46;;;;;;;8.70;6.00;;;;;;;;;;5018919;28;20948;-95
2022/01/19 01:05:13;;;;;;;8.03;6.40;;;;;;;;;;5020295;28;20445;-94
2022/01/19 01:07:41;;;;;;;12.83;6.83;;;;;;;;;;5020188;28;20955;-93
2022/01/19 01:10:09;;;;;;;12.20;6.40;;;;;;;;;;5020134;28;20485;-94
2022/01/19 01:12:45;;;;;;;10.77;7.20;;;;;;;;;;5019259;28;20453;-94
2022/01/19 01:15:26;;;;;;;7.10;5.67;;;;;;;;;;5018644;28;20838;-94
2022/01/19 01:20:40;;;;;;;9.40;6.90;;;;;;;;;;5017796;28;20444;-93
2022/01/19 01:23:08;;;;;;;9.87;6.13;;;;;;;;;;5017572;28;20959;-94
2022/01/19 01:25:36;;;;;;;9.30;7.07;;;;;;;;;;5017258;28;20445;-93
2022/01/19 01:28:03;;;;;;;11.30;7.40;;;;;;;;;;5017874;28;20560;-94
2022/01/19 01:30:30;;;;;;;9.93;6.47;;;;;;;;;;5017741;28;20453;-95
2022/01/19 01:33:00;;;;;;;15.33;7.70;;;;;;;;;;5017335;28;20504;-92
2022/01/19 01:35:28;;;;;;;11.67;7.40;;;;;;;;;;5017118;28;20946;-93
2022/01/19 01:37:55;;;;;;;12.27;6.90;;;;;;;;;;5017741;28;20459;-93
2022/01/19 01:40:25;;;;;;;8.70;6.60;;;;;;;;;;5017260;28;20465;-94
2022/01/19 01:42:52;;;;;;;10.70;7.00;;;;;;;;;;5017480;28;20531;-93
2022/01/19 01:45:25;;;;;;;8.23;6.20;;;;;;;;;;5016719;28;20430;-94
2022/01/19 01:48:01;;;;;;;11.60;6.70;;;;;;;;;;5017004;28;20544;-93
2022/01/19 01:53:27;;;;;;;11.90;7.03;;;;;;;;;;5017132;28;20841;-94
2022/01/19 01:55:55;;;;;;;12.47;8.10;;;;;;;;;;5017323;28;20471;-95
2022/01/19 01:58:22;;;;;;;13.83;7.73;;;;;;;;;;5017212;28;20520;-95
2022/01/19 02:00:50;;;;;;;10.37;7.43;;;;;;;;;;5016721;28;20808;-94
2022/01/19 02:03:17;;;;;;;9.80;6.60;;;;;;;;;;5016557;28;20932;-93
2022/01/19 02:06:03;;;;;;;16.87;6.70;;;;;;;;;;5016622;28;20462;-92
2022/01/19 02:08:37;;;;;;;13.30;7.00;;;;;;;;;;5016939;28;20468;-93
2022/01/19 02:11:29;;;;;;;13.13;7.40;;;;;;;;;;5016832;28;20499;-95
2022/01/19 02:16:49;;;;;;;11.00;7.30;;;;;;;;;;5016645;28;20436;-93
2022/01/19 02:22:02;;;;;;;11.43;7.60;;;;;;;;;;5016409;28;20428;-95
2022/01/19 02:24:32;;;;;;;11.00;7.90;;;;;;;;;;5015575;28;20491;-94
2022/01/19 02:27:07;;;;;;;12.20;7.93;;;;;;;;;;5016284;28;20453;-94
2022/01/19 02:40:48;;;;;;;10.90;6.60;;;;;;;;;;5016199;28;20472;-93
2022/01/19 02:43:21;;;;;;;9.97;7.07;;;;;;;;;;5016073;28;20520;-94
2022/01/19 02:51:18;;;;;;;9.47;7.27;;;;;;;;;;5015988;28;20425;-93
2022/01/19 02:53:47;;;;;;;12.43;6.60;;;;;;;;;;5016284;28;20476;-93
2022/01/19 02:56:21;;;;;;;8.13;6.50;;;;;;;;;;5016007;28;20456;-93
2022/01/19 02:58:51;;;;;;;10.13;6.73;;;-0.30;99.90;;;;;;5015591;28;20488;-93
2022/01/19 03:09:34;;;;;;;17.23;7.17;;;;;;;;;;5015278;28;20899;-92
2022/01/19 03:12:01;;;;;;;9.80;6.43;;;;;;;;;;5016016;28;20540;-95
2022/01/19 03:14:28;;;;;;;9.90;6.63;;;;;;;;;;5015091;28;20499;-94
2022/01/19 03:16:55;;;;;;;18.03;7.43;;;;;;;;;;5015892;28;20440;-93
2022/01/19 03:19:25;;;;;;;12.20;8.43;;;;;;;;;;5015635;28;20461;-93
2022/01/19 03:21:52;;;;;;;11.97;7.10;;;;;;;;;;5015891;28;20456;-92
2022/01/19 03:24:20;;;;;;;9.90;6.33;;;;;;;;;;5015443;28;20448;-93
2022/01/19 03:26:48;;;;;;;10.90;6.43;;;;;;;;;;5011852;28;20461;-94
2022/01/19 03:29:16;;;;;;;10.50;6.63;;;;;;;;;;5014612;28;20468;-93
2022/01/19 03:31:43;;;;;;;14.80;7.57;;;;;;;;;;5015129;28;20476;-92
2022/01/19 03:34:11;;;;;;;13.23;6.80;;;;;;;;;;5015882;28;20491;-94
2022/01/19 03:36:39;;;;;;;10.40;7.53;;;;;;;;;;5015745;28;20456;-94
2022/01/19 03:39:06;;;;;;;9.27;6.23;;;;;;;;;;5015674;28;20452;-94
2022/01/19 03:41:34;;;;;;;13.33;7.07;;;;;;;;;;5014623;28;20433;-93
2022/01/19 03:44:02;;;;;;;9.30;6.90;;;;;;;;;;5014207;28;20473;-94
2022/01/19 03:46:33;;;;;;;11.40;7.00;;;;;;;;;;5015220;28;20452;-95
2022/01/19 03:49:10;;;;;;;15.07;7.50;;;;;;;;;;5012434;28;20499;-93
2022/01/19 03:51:37;;;;;;;10.73;7.00;;;;;;;;;;5015395;28;20535;-93
2022/01/19 03:54:05;;;;;;;9.20;6.40;;;;;;;;;;5013817;28;20461;-94
2022/01/19 03:56:32;;;;;;;7.63;6.03;;;;;;;;;;5014893;28;20457;-93
2022/01/19 03:58:59;;;;;;;12.37;6.50;;;;;;;;;;5014526;28;20460;-93
2022/01/19 04:01:27;;;;;;;17.20;7.77;;;;;;;;;;5014772;28;20429;-95
2022/01/19 04:06:55;;;;;;;10.60;7.00;;;;;;;;;;5011613;28;20445;-92
2022/01/19 04:09:22;;;;;;;12.97;6.30;;;;;;;;;;5013843;28;20448;-94
2022/01/19 04:11:49;;;;;;;9.40;6.30;;;;;;;;;;5015210;28;20437;-93
2022/01/19 04:14:23;;;;;;;11.80;7.07;;;;;;;;;;5017906;28;20468;-93
2022/01/19 04:16:52;;;;;;;14.23;6.73;;;;;;;;;;5018297;28;20986;-93
2022/01/19 04:19:26;;;;;;;9.07;6.00;;;;;;;;;;5018450;28;20457;-92
2022/01/19 04:21:53;;;;;;;8.47;6.17;;;;;;;;;;5018510;28;20444;-93
2022/01/19 04:24:22;;;;;;;13.70;6.73;;;;;;;;;;5019054;28;20960;-93
2022/01/19 04:29:41;;;;;;;13.43;6.73;;;;;;;;;;5017764;28;20464;-94
2022/01/19 04:32:14;;;;;;;10.83;6.80;;;;;;;;;;5018508;28;20996;-93
2022/01/19 04:34:44;;;;;;;10.77;6.50;;;;;;;;;;5018369;28;20515;-92
2022/01/19 04:37:29;;;;;;;18.40;6.47;;;;;;;;;;5019002;28;20452;-92
2022/01/19 04:48:20;;;;;;;11.80;6.30;;;;;;;;;;5017868;28;20468;-93
2022/01/19 05:01:52;;;;;;;9.37;6.23;;;;;;;;;;5017536;28;20464;-92
2022/01/19 05:04:30;;;;;;;8.43;6.20;;;;;;;;;;5018155;28;20461;-92
2022/01/19 05:07:09;;;;;;;11.97;6.77;;;;;;;;;;5018350;28;20460;-93
2022/01/19 05:10:00;;;;;;;10.93;6.37;;;;;;;;;;5018634;28;20928;-93
2022/01/19 05:15:27;;;;;;;10.13;6.43;;;;;;;;;;4996415;28;20473;-93
2022/01/19 05:17:54;;;;;;;9.90;5.90;;;;;;;;;;4993685;28;20445;-94
2022/01/19 05:20:23;;;;;;;11.07;7.17;;;;;;;;;;5006992;28;20467;-94
2022/01/19 05:22:50;;;;;;;8.93;5.70;;;;;;;;;;5017367;28;20975;-93
2022/01/19 05:25:17;;;;;;;14.33;8.00;;;;;;;;;;5018291;28;20453;-94
2022/01/19 05:27:44;;;;;;;11.20;6.73;;;;;;;;;;5017983;28;20834;-94
2022/01/19 05:30:12;;;;;;;11.43;6.73;;;;;;;;;;5017631;28;20956;-94
2022/01/19 05:32:39;;;;;;;11.40;6.77;;;;;;;;;;5018177;28;20483;-92
2022/01/19 05:35:07;;;;;;;11.47;7.07;;;;;;;;;;5017841;28;20560;-94
2022/01/19 05:37:36;;;;;;;2.40;1.97;;;;;;;;;;5018326;28;20456;-92
2022/01/19 05:40:04;;;;;;;11.37;6.30;;;;;;;;;;5018203;28;20471;-92
2022/01/19 05:42:31;;;;;;;10.40;6.83;;;;;;;;;;5016945;28;20484;-93
2022/01/19 05:44:58;;;;;;;10.50;6.03;;;;;;;;;;5017458;28;20465;-93
2022/01/19 05:47:25;;;;;;;9.60;6.67;;;;;;;;;;5016036;28;20453;-93
2022/01/19 05:49:52;;;;;;;14.20;7.47;;;;;;;;;;5017287;28;20457;-93
2022/01/19 05:52:20;;;;;;;13.47;8.80;;;;;;;;;;5018745;28;20457;-93
2022/01/19 05:54:50;;;;;;;14.03;9.37;;;;;;;;;;5018179;28;20472;-93
2022/01/19 05:57:17;;;;;;;16.47;8.17;;;;;;;;;;5018166;28;20440;-94
2022/01/19 05:59:44;;;;;;;13.60;8.63;;;;;;;;;;5017277;28;20452;-92
2022/01/19 06:02:12;;;;;;;15.40;7.63;;;;;;;;;;5018740;28;20456;-94
2022/01/19 06:04:39;;;;;;;16.13;8.63;;;;;;;;;;5019038;28;20811;-93
2022/01/19 06:07:06;;;;;;;18.20;8.20;;;;;;;;;;5018984;28;20454;-93
2022/01/19 06:09:35;;;;;;;16.97;8.33;;;;;;;;;;5018002;28;20924;-93
2022/01/19 06:12:07;;;;;;;15.63;9.30;;;-0.40;99.90;;;;;;5017648;28;20991;-93
2022/01/19 06:14:37;;;;;;;19.13;8.70;;;-0.40;99.90;;;;;;5017401;28;20491;-93
2022/01/19 06:17:09;;;;;;;10.90;8.37;;;-0.40;99.90;;;;;;5017900;28;20970;-94
2022/01/19 06:19:36;;;;;;;16.33;9.73;;;;;;;;;;5016241;28;20449;-95
2022/01/19 06:22:03;;;;;;;16.93;8.70;;;;;;;;;;5017597;28;20453;-92
2022/01/19 06:24:31;;;;;;;14.47;8.80;;;;;;;;;;5017097;28;20453;-94
2022/01/19 06:26:58;;;;;;;10.37;7.60;;;;;;;;;;5017400;28;20472;-93
2022/01/19 06:29:26;;;;;;;12.83;7.87;;;;;;;;;;5016979;28;20461;-94
2022/01/19 06:31:54;;;;;;;19.80;10.10;;;;;;;;;;5017908;28;20487;-94
2022/01/19 06:34:21;;;;;;;13.83;9.07;;;;;;;;;;5016901;28;20457;-95
2022/01/19 06:36:51;;;;;;;16.50;7.80;;;;;;;;;;5017043;28;20788;-95
2022/01/19 06:39:18;;;;;;;18.60;8.13;;;;;;;;;;5017154;28;21118;-94
2022/01/19 06:41:45;;;;;;;11.10;7.73;;;;;;;;;;5017222;28;20453;-94
2022/01/19 06:44:14;;;;;;;15.87;8.90;;;;;;;;;;5015975;28;20843;-93
2022/01/19 06:46:42;;;;;;;18.27;10.93;;;-0.20;99.90;;;;;;5013453;28;20453;-93
2022/01/19 06:49:10;;;;;;;18.30;10.07;;;-0.20;99.90;;;;;;5014931;28;20512;-94
2022/01/19 06:51:37;;;;;;;19.70;10.70;;;;;;;;;;5012788;28;20452;-93
2022/01/19 06:54:05;;;;;;;37.60;17.50;;;;;;;;;;5015505;28;20843;-92
2022/01/19 06:56:37;;;;;;;22.47;10.93;;;;;;;;;;5015706;28;20499;-92
2022/01/19 06:59:04;;;;;;;20.30;11.67;;;;;;;;;;5015507;28;20933;-93
2022/01/19 07:01:32;;;;;;;19.83;9.10;;;;;;;;;;5015732;28;20448;-92
2022/01/19 07:04:00;;;;;;;20.30;12.40;;;;;;;;;;5015786;28;20519;-92
2022/01/19 07:06:27;;;;;;;26.47;14.07;;;;;;;;;;5011170;28;20464;-89
2022/01/19 07:08:55;;;;;;;16.60;10.30;;;;;;;;;;5017794;28;20441;-94
2022/01/19 07:11:22;;;;;;;27.97;17.83;;;;;;;;;;5016446;28;20491;-91
2022/01/19 07:13:49;;;;;;;20.80;13.40;;;;;;;;;;5008441;28;20982;-92
2022/01/19 07:16:17;;;;;;;15.67;10.90;;;;;;;;;;5015349;28;20488;-91
2022/01/19 07:18:44;;;;;;;18.27;10.50;;;;;;;;;;5015443;28;20441;-93
2022/01/19 07:21:13;;;;;;;20.00;10.63;;;;;;;;;;5010704;28;20464;-90
2022/01/19 07:23:40;;;;;;;13.77;9.93;;;;;;;;;;5012414;28;20441;-91
2022/01/19 07:26:07;;;;;;;16.60;9.53;;;;;;;;;;5015538;28;20461;-91
2022/01/19 07:28:34;;;;;;;21.20;10.53;;;;;;;;;;5011893;28;20467;-92
2022/01/19 07:31:02;;;;;;;15.00;9.37;;;;;;;;;;5009757;28;20481;-91
2022/01/19 07:33:29;;;;;;;15.93;9.97;;;;;;;;;;5011758;28;20464;-92
2022/01/19 07:35:56;;;;;;;15.33;10.60;;;;;;;;;;5011861;28;21022;-92
2022/01/19 07:38:26;;;;;;;14.57;10.00;;;;;;;;;;5015168;28;20456;-93
2022/01/19 07:40:53;;;;;;;13.90;9.23;;;;;;;;;;5015217;28;20453;-91
2022/01/19 07:43:20;;;;;;;12.17;9.10;;;;;;;;;;5014541;28;20476;-91
2022/01/19 07:45:48;;;;;;;15.33;9.90;;;;;;;;;;5014208;28;20445;-90
2022/01/19 07:48:15;;;;;;;16.37;10.73;;;;;;;;;;5018235;28;20448;-90
2022/01/19 07:50:42;;;;;;;18.00;10.43;;;;;;;;;;5014034;28;20453;-91
2022/01/19 07:53:09;;;;;;;15.97;10.27;;;;;;;;;;5018072;28;20433;-91
2022/01/19 07:55:38;;;;;;;18.00;11.70;;;;;;;;;;5018193;28;20843;-91
2022/01/19 07:58:05;;;;;;;15.37;10.57;;;;;;;;;;5014086;28;20472;-91
2022/01/19 08:00:35;;;;;;;17.10;11.70;;;-0.20;99.90;;;;;;5013301;28;20471;-91
2022/01/19 08:03:02;;;;;;;20.27;12.20;;;;;;;;;;5017968;28;20547;-89
2022/01/19 08:05:29;;;;;;;16.87;10.63;;;;;;;;;;5018063;28;20433;-89
2022/01/19 08:07:57;;;;;;;19.30;11.40;;;;;;;;;;5017355;28;20452;-89
2022/01/19 08:10:24;;;;;;;19.30;12.00;;;;;;;;;;5017816;28;20440;-89
2022/01/19 08:12:52;;;;;;;16.40;10.33;;;0.20;99.90;;;;;;5017665;28;20440;-91
2022/01/19 08:15:20;;;;;;;13.83;8.63;;;;;;;;;;5013799;28;20522;-90
2022/01/19 08:17:47;;;;;;;20.43;13.50;;;;;;;;;;5017615;28;20947;-87
2022/01/19 08:20:14;;;;;;;18.37;11.67;;;;;;;;;;5017542;28;20478;-87
2022/01/19 08:22:41;;;;;;;19.17;10.87;;;;;;;;;;5016629;28;20940;-87
2022/01/19 08:25:09;;;;;;;19.83;12.00;;;1.30;99.90;;;;;;5017261;28;20441;-88
2022/01/19 08:27:36;;;;;;;24.30;8.10;;;;;;;;;;5014678;28;20464;-89
2022/01/19 08:30:07;;;;;;;16.00;9.67;;;1.70;99.90;;;;;;5016556;28;20469;-92
2022/01/19 08:32:35;;;;;;;16.37;9.90;;;;;;;;;;5018930;28;20457;-91
2022/01/19 08:35:02;;;;;;;16.67;9.97;;;;;;;;;;5014006;28;20453;-89
2022/01/19 08:37:30;;;;;;;17.90;12.57;;;2.60;99.90;;;;;;5017954;28;20480;-92
2022/01/19 08:39:58;;;;;;;12.83;8.80;;;;;;;;;;5019089;28;20464;-90
2022/01/19 08:42:25;;;;;;;16.67;11.90;;;;;;;;;;5014265;28;20972;-90
2022/01/19 08:44:52;;;;;;;18.90;12.93;;;2.90;99.90;;;;;;5012583;28;20452;-92
2022/01/19 08:47:21;;;;;;;13.50;8.53;;;;;;;;;;5014495;28;20461;-91
2022/01/19 08:49:48;;;;;;;14.10;9.83;;;;;;;;;;5016998;28;20453;-91
2022/01/19 08:52:16;;;;;;;16.67;11.50;;;;;;;;;;5014378;28;20457;-90
2022/01/19 08:54:45;;;;;;;11.80;9.00;;;;;;;;;;4996952;28;20450;-90
2022/01/19 08:57:12;;;;;;;12.43;8.80;;;;;;;;;;4996651;28;20501;-90
2022/01/19 08:59:39;;;;;;;13.30;9.63;;;;;;;;;;4996963;28;20449;-94
2022/01/19 09:02:07;;;;;;;14.40;10.30;;;3.60;99.90;;;;;;4998295;28;20442;-93
2022/01/19 09:04:35;;;;;;;12.23;8.80;;;;;;;;;;4997966;28;20446;-91
2022/01/19 09:07:03;;;;;;;14.60;10.17;;;;;;;;;;4997120;28;20968;-90
2022/01/19 09:09:30;;;;;;;8.77;6.13;;;;;;;;;;4997039;28;20433;-91
2022/01/19 09:11:57;;;;;;;10.60;9.10;;;;;;;;;;4995027;28;20878;-92
2022/01/19 09:14:31;;;;;;;16.50;9.77;;;5.10;99.90;;;;;;4996385;28;20441;-92
2022/01/19 09:16:58;;;;;;;11.17;7.53;;;;;;;;;;4991457;28;21079;-91
2022/01/19 09:19:25;;;;;;;15.73;9.57;;;;;;;;;;4997269;28;20442;-90
2022/01/19 09:21:55;;;;;;;12.37;10.53;;;;;;;;;;4996527;28;20431;-91
2022/01/19 09:24:22;;;;;;;11.77;9.57;;;;;;;;;;4993811;28;20810;-92
2022/01/19 09:26:49;;;;;;;13.40;9.83;;;;;;;;;;4996268;28;20453;-90
2022/01/19 09:29:17;;;;;;;14.07;10.03;;;;;;;;;;4995764;28;20486;-89
2022/01/19 09:31:44;;;;;;;12.33;10.00;;;;;;;;;;4996419;28;20459;-90
2022/01/19 09:34:15;;;;;;;13.83;10.00;;;;;;;;;;4995816;28;20452;-89
2022/01/19 09:36:46;;;;;;;11.47;8.10;;;7.40;99.90;;;;;;4995594;28;20498;-91
2022/01/19 09:39:16;;;;;;;12.80;9.53;;;7.20;99.90;;;;;;4995765;28;21012;-92
2022/01/19 09:41:45;;;;;;;11.17;8.90;;;;;;;;;;4996120;28;20816;-91
2022/01/19 09:44:12;;;;;;;11.43;9.37;;;;;;;;;;4995084;28;20667;-91
2022/01/19 09:46:39;;;;;;;13.13;8.87;;;;;;;;;;4996249;28;20440;-91
2022/01/19 09:49:07;;;;;;;13.27;9.30;;;;;;;;;;4993048;28;20457;-91
2022/01/19 09:51:34;;;;;;;13.50;9.67;;;;;;;;;;4996075;28;20917;-92
2022/01/19 09:54:01;;;;;;;11.47;8.90;;;;;;;;;;4997804;28;20458;-91
2022/01/19 09:56:30;;;;;;;11.60;9.30;;;;;;;;;;4995888;28;20496;-91
2022/01/19 09:58:57;;;;;;;12.37;8.40;;;;;;;;;;4995072;28;20445;-91
2022/01/19 10:01:25;;;;;;;12.00;8.80;;;8.00;99.90;;;;;;4995967;28;20927;-92
2022/01/19 10:03:53;;;;;;;12.03;8.80;;;;;;;;;;4992714;28;20505;-92
2022/01/19 10:06:22;;;;;;;9.10;7.40;;;8.20;99.90;;;;;;4996005;28;20432;-93
2022/01/19 10:08:51;;;;;;;8.13;7.33;;;7.70;99.90;;;;;;4994096;28;20543;-93
2022/01/19 10:11:22;;;;;;;9.60;7.80;;;7.70;99.90;;;;;;4993139;28;20442;-91
2022/01/19 10:17:01;;;;;;;9.30;8.10;;;7.90;99.90;;;;;;4995854;28;20486;-92
2022/01/19 10:19:33;;;;;;;9.20;7.70;;;8.90;99.90;;;;;;4995563;28;20938;-92
2022/01/19 10:22:07;;;;;;;10.80;9.50;;;9.20;99.30;;;;;;4990263;28;20433;-93
2022/01/19 10:24:36;;;;;;;8.97;7.17;;;8.50;99.90;;;;;;4995760;28;20962;-93
2022/01/19 10:27:18;;;;;;;10.03;7.93;;;;;;;;;;4989808;28;21013;-92
2022/01/19 10:29:47;;;;;;;8.90;7.63;;;9.60;98.80;;;;;;4995094;28;20467;-94
2022/01/19 10:32:14;;;;;;;9.00;8.10;;;;;;;;;;4995786;28;20786;-93
2022/01/19 10:34:41;;;;;;;11.40;7.77;;;;;;;;;;4995549;28;20451;-94
2022/01/19 10:37:09;;;;;;;8.40;7.60;;;;;;;;;;4995306;28;20489;-93
2022/01/19 10:39:41;;;;;;;8.73;7.63;;;10.20;97.50;;;;;;4995463;28;20950;-93
2022/01/19 10:42:12;;;;;;;9.60;7.73;;;10.90;96.50;;;;;;4990956;28;20497;-90
2022/01/19 10:47:39;;;;;;;8.73;7.83;;;11.20;95.20;;;;;;4994983;28;20464;-90
2022/01/19 10:50:08;;;;;;;10.70;8.10;;;11.40;95.10;;;;;;4990828;28;20449;-92
2022/01/19 10:52:37;;;;;;;10.20;7.20;;;11.60;95.30;;;;;;4995410;28;20791;-90
2022/01/19 10:55:11;;;;;;;9.80;8.33;;;11.00;95.50;;;;;;4992455;28;20440;-91
2022/01/19 10:57:41;;;;;;;9.27;6.50;;;11.20;94.30;;;;;;4994993;28;20481;-89
2022/01/19 11:00:12;;;;;;;9.30;6.80;;;;;;;;;;4994547;28;20953;-91
2022/01/19 11:02:41;;;;;;;6.17;5.40;;;9.50;96.70;;;;;;4994806;28;20957;-90
2022/01/19 11:05:09;;;;;;;7.33;4.47;;;;;;;;;;4989518;28;20441;-91
2022/01/19 11:07:36;;;;;;;6.40;4.50;;;;;;;;;;4998162;28;20454;-91
2022/01/19 11:10:10;;;;;;;7.43;5.13;;;8.30;98.80;;;;;;5009987;28;20461;-91
2022/01/19 11:12:44;;;;;;;6.30;4.73;;;;;;;;;;5011379;28;20515;-90
2022/01/19 11:15:11;;;;;;;6.40;5.40;;;;;;;;;;5013061;28;20491;-90
2022/01/19 11:17:39;;;;;;;6.00;5.23;;;;;;;;;;5009566;28;20480;-91
2022/01/19 11:20:12;;;;;;;7.10;4.67;;;8.90;98.40;;;;;;5011384;28;20524;-91
2022/01/19 11:23:06;;;;;;;6.00;5.37;;;9.20;98.10;;;;;;5020486;28;20454;-90
2022/01/19 11:25:45;;;;;;;8.07;5.07;;;9.80;97.60;;;;;;5020899;28;20451;-91
2022/01/19 11:28:12;;;;;;;6.03;5.23;;;;;;;;;;5021293;28;20451;-91
2022/01/19 11:30:46;;;;;;;6.20;5.60;;;9.90;97.10;;;;;;5017609;28;20454;-93
2022/01/19 11:33:24;;;;;;;6.90;4.87;;;10.10;97.20;;;;;;5007946;28;20465;-92
2022/01/19 11:35:56;;;;;;;6.40;5.50;;;9.60;98.40;;;;;;4998304;28;20516;-90
2022/01/19 11:38:32;;;;;;;8.47;4.87;;;8.90;97.60;;;;;;5000989;28;20482;-90
2022/01/19 11:41:00;;;;;;;7.27;5.73;;;;;;;;;;5001359;28;20471;-91
2022/01/19 11:43:29;;;;;;;7.80;6.13;;;9.80;98.70;;;;;;5000998;28;20485;-91
2022/01/19 11:45:57;;;;;;;13.20;6.30;;;9.70;98.80;;;;;;5000840;28;20437;-91
2022/01/19 11:48:27;;;;;;;6.67;5.50;;;9.60;98.50;;;;;;4998115;28;20441;-92
2022/01/19 11:51:22;;;;;;;8.27;5.90;;;10.10;98.10;;;;;;4998753;28;20452;-90
2022/01/19 11:54:06;;;;;;;8.13;5.50;;;9.80;97.90;;;;;;5001497;28;20445;-91
2022/01/19 11:56:34;;;;;;;8.90;5.73;;;9.70;97.50;;;;;;4922526;29;20491;-93
2022/01/19 11:59:08;;;;;;;12.90;4.87;;;9.60;97.50;;;;;;4918775;29;20605;-89
2022/01/19 12:01:35;;;;;;;6.63;5.00;;;;;;;;;;4922027;29;20464;-92
2022/01/19 12:04:17;;;;;;;10.00;6.83;;;9.60;97.60;;;;;;4916971;29;20463;-92
2022/01/19 12:06:46;;;;;;;9.13;6.77;;;9.80;97.90;;;;;;4919998;29;20465;-91
2022/01/19 12:09:15;;;;;;;7.40;5.20;;;10.10;96.60;;;;;;4921393;29;20455;-89
2022/01/19 12:11:49;;;;;;;8.33;6.00;;;10.30;96.40;;;;;;4924197;29;20577;-91
2022/01/19 12:14:20;;;;;;;9.00;6.30;;;10.10;96.60;;;;;;4945559;28;20461;-90
2022/01/19 12:17:00;;;;;;;7.43;6.50;;;10.20;96.40;;;;;;5001634;28;21000;-90
2022/01/19 12:19:28;;;;;;;8.93;6.37;;;10.30;96.60;;;;;;5001400;28;20459;-90
2022/01/19 12:22:05;;;;;;;10.07;6.80;;;9.90;97.50;;;;;;5000781;28;20494;-91
2022/01/19 12:24:37;;;;;;;11.93;7.40;;;9.90;98.00;;;;;;4999875;28;21005;-89
2022/01/19 12:27:10;;;;;;;10.63;8.17;;;9.80;99.30;;;;;;5000233;28;20466;-93
2022/01/19 12:29:44;;;;;;;12.47;7.53;;;10.20;98.10;;;;;;5001477;28;20477;-91
2022/01/19 12:32:48;;;;;;;11.00;8.27;;;10.50;97.70;;;;;;4998518;28;20456;-91
2022/01/19 12:35:18;;;;;;;13.23;9.20;;;9.80;98.70;;;;;;4998865;28;20442;-89
2022/01/19 12:37:49;;;;;;;10.87;8.37;;;9.80;99.20;;;;;;4998054;28;20509;-89
2022/01/19 12:40:44;;;;;;;16.00;9.83;;;9.50;99.10;;;;;;4997733;28;20462;-89
2022/01/19 12:43:13;;;;;;;11.53;9.47;;;;;;;;;;4998780;28;20564;-91
2022/01/19 12:45:49;;;;;;;9.30;7.47;;;8.80;99.90;;;;;;4998206;28;20433;-93
2022/01/19 12:48:37;;;;;;;10.67;9.40;;;8.80;99.90;;;;;;4995901;28;20459;-91
2022/01/19 12:51:04;;;;;;;11.10;8.40;;;8.50;99.90;;;;;;4995676;28;20487;-92
2022/01/19 12:53:32;;;;;;;10.53;9.13;;;;;;;;;;4994494;28;20460;-90
2022/01/19 12:56:01;;;;;;;8.33;6.60;;;8.40;99.90;;;;;;4998519;28;20438;-92
2022/01/19 12:58:32;;;;;;;10.53;8.20;;;8.00;99.90;;;;;;4994293;28;20541;-92
2022/01/19 13:01:01;;;;;;;16.80;9.00;;;8.60;99.90;;;;;;4991590;28;20459;-92
2022/01/19 13:03:31;;;;;;;10.63;8.80;;;8.80;99.90;;;;;;4993393;28;20435;-90
2022/01/19 13:06:08;;;;;;;12.87;8.80;;;;;;;;;;4999524;28;20450;-94
2022/01/19 13:08:42;;;;;;;11.80;7.53;;;8.20;99.90;;;;;;5000817;28;20463;-90
2022/01/19 13:11:25;;;;;;;13.60;8.17;;;7.90;99.90;;;;;;4996967;28;20452;-91
2022/01/19 13:14:01;;;;;;;10.00;7.30;;;7.60;99.90;;;;;;5001011;28;20516;-94
2022/01/19 13:16:37;;;;;;;9.97;8.23;;;7.80;99.90;;;;;;5000865;28;20956;-90
2022/01/19 13:19:13;;;;;;;11.33;7.37;;;8.30;99.90;;;;;;5016241;28;20470;-92
2022/01/19 13:21:43;;;;;;;14.87;8.17;;;8.30;99.90;;;;;;5016879;28;20463;-91
2022/01/19 13:24:16;;;;;;;9.60;7.40;;;8.40;99.90;;;;;;5016411;28;20533;-92
2022/01/19 13:26:47;;;;;;;9.80;6.80;;;8.30;99.90;;;;;;5016684;28;20925;-91
2022/01/19 13:29:31;;;;;;;9.47;6.47;;;;;;;;;;5015568;28;20482;-91
2022/01/19 13:32:02;;;;;;;9.63;6.27;;;8.20;99.90;;;;;;5012699;28;20465;-91
2022/01/19 13:34:30;;;;;;;8.43;5.43;;;;;;;;;;5015823;28;20452;-91
2022/01/19 13:37:00;;;;;;;9.60;7.40;;;7.90;99.90;;;;;;5016051;28;20480;-91
2022/01/19 13:39:31;;;;;;;6.27;5.27;;;7.70;99.90;;;;;;5016428;28;20492;-92
2022/01/19 13:42:00;;;;;;;11.83;6.60;;;;;;;;;;5017246;28;20463;-90
2022/01/19 13:44:33;;;;;;;9.57;7.07;;;7.00;99.90;;;;;;5032194;28;20500;-92
2022/01/19 13:47:11;;;;;;;9.80;6.63;;;6.90;99.90;;;;;;5036010;28;20464;-92
2022/01/19 13:49:39;;;;;;;8.20;5.90;;;6.70;99.90;;;;;;5013128;28;20503;-93
2022/01/19 13:52:06;;;;;;;8.20;6.13;;;;;;;;;;5016267;28;20459;-92
2022/01/19 13:54:38;;;;;;;10.63;5.27;;;;;;;;;;5017132;28;20791;-92
2022/01/19 13:57:08;;;;;;;8.60;5.90;;;6.40;99.90;;;;;;5018625;28;20480;-91
2022/01/19 13:59:35;;;;;;;8.70;5.83;;;;;;;;;;5016102;28;20449;-91
2022/01/19 14:02:14;;;;;;;7.20;5.50;;;6.00;99.90;;;;;;5014466;28;20461;-92
2022/01/19 14:04:52;;;;;;;7.20;4.80;;;6.30;99.90;;;;;;5015525;28;20548;-91
2022/01/19 14:07:19;;;;;;;9.40;5.40;;;;;;;;;;5012621;28;20449;-92
2022/01/19 14:10:04;;;;;;;9.37;5.80;;;6.30;99.90;;;;;;5016530;28;20449;-92
2022/01/19 14:12:32;;;;;;;7.87;5.60;;;;;;;;;;5013857;28;20479;-88
2022/01/19 14:15:00;;;;;;;8.17;4.57;;;;;;;;;;5016986;28;20548;-91
2022/01/19 14:17:29;;;;;;;4.07;3.57;;;5.90;99.90;;;;;;5014210;28;20488;-92
2022/01/19 14:19:57;;;;;;;4.20;3.13;;;5.70;99.90;;;;;;5012744;28;20865;-92
2022/01/19 14:22:25;;;;;;;5.23;3.43;;;5.60;99.90;;;;;;5015685;28;20995;-91
2022/01/19 14:25:03;;;;;;;9.37;6.03;;;5.70;99.90;;;;;;5012481;28;20449;-91
2022/01/19 14:27:46;;;;;;;5.87;3.70;;;5.70;99.90;;;;;;5015356;28;20447;-91
2022/01/19 14:30:20;;;;;;;8.53;6.40;;;5.70;99.90;;;;;;5013178;28;20453;-91
2022/01/19 14:32:49;;;;;;;6.13;3.60;;;5.50;99.90;;;;;;5011679;28;20453;-92
2022/01/19 14:35:28;;;;;;;8.17;4.87;;;5.40;99.90;;;;;;5015546;28;20452;-93
2022/01/19 14:38:18;;;;;;;7.80;5.87;;;5.30;99.90;;;;;;5011147;28;20479;-93
2022/01/19 14:40:56;;;;;;;10.23;5.47;;;5.30;99.90;;;;;;5012563;28;20798;-93
2022/01/19 14:43:25;;;;;;;3.00;2.70;;;5.20;99.90;;;;;;5011252;28;20520;-93
2022/01/19 14:46:00;;;;;;;6.80;4.10;;;5.20;99.90;;;;;;5019961;28;20499;-93
2022/01/19 14:48:35;;;;;;;4.80;2.80;;;5.00;99.90;;;;;;5030508;28;20451;-92
2022/01/19 14:51:02;;;;;;;3.20;2.50;;;;;;;;;;5016561;28;20456;-91
2022/01/19 14:53:30;;;;;;;7.50;5.60;;;;;;;;;;5015225;28;20453;-92
2022/01/19 14:55:58;;;;;;;7.80;5.83;;;4.80;99.90;;;;;;5014452;28;20862;-92
2022/01/19 14:58:28;;;;;;;9.23;6.43;;;;;;;;;;5015598;28;20489;-91
2022/01/19 15:00:57;;;;;;;7.20;4.73;;;;;;;;;;5011494;28;20445;-92
2022/01/19 15:03:24;;;;;;;7.30;4.77;;;;;;;;;;5016054;28;20444;-91
2022/01/19 15:05:51;;;;;;;4.30;3.03;;;;;;;;;;5024124;28;20471;-90
2022/01/19 15:08:19;;;;;;;10.53;6.43;;;;;;;;;;5037465;28;20912;-90
2022/01/19 15:10:46;;;;;;;7.50;5.73;;;;;;;;;;5030602;28;20459;-91
2022/01/19 15:13:14;;;;;;;10.50;5.90;;;4.60;99.90;;;;;;5031141;28;20444;-91
2022/01/19 15:15:41;;;;;;;8.37;5.97;;;;;;;;;;5033704;28;20448;-93
2022/01/19 15:18:09;;;;;;;4.50;3.60;;;4.50;99.90;;;;;;5033904;28;21021;-92
2022/01/19 15:20:40;;;;;;;8.83;5.90;;;4.40;99.90;;;;;;5034067;28;20456;-90
2022/01/19 15:23:08;;;;;;;4.60;2.73;;;;;;;;;;5030298;28;20836;-90